createdAt,value
2023-03-22T00:01:23.058Z,20.63
2023-03-22T00:03:52.253Z,22.65
2023-03-22T00:06:20.130Z,17.63
2023-03-22T00:08:50.815Z,24.35
2023-03-22T00:11:19.515Z,17.38
2023-03-22T00:13:48.018Z,13.32
2023-03-22T00:16:16.643Z,18.40
2023-03-22T00:18:54.414Z,18.50
2023-03-22T00:21:21.988Z,20.95
2023-03-22T00:23:49.451Z,17.48
2023-03-22T00:26:16.856Z,16.77
2023-03-22T00:28:44.190Z,19.30
2023-03-22T00:31:11.798Z,16.02
2023-03-22T00:33:39.375Z,17.30
2023-03-22T00:36:09.246Z,21.08
2023-03-22T00:38:44.063Z,15.68
2023-03-22T00:41:18.177Z,19.90
2023-03-22T00:43:46.842Z,13.98
2023-03-22T00:46:15.562Z,16.23
2023-03-22T00:48:43.449Z,13.20
2023-03-22T00:51:11.198Z,16.63
2023-03-22T00:53:42.582Z,11.95
2023-03-22T00:56:14.325Z,20.80
2023-03-22T00:58:42.704Z,13.80
2023-03-22T01:01:13.848Z,17.17
2023-03-22T01:03:43.348Z,16.27
2023-03-22T01:06:11.635Z,17.70
2023-03-22T01:08:39.320Z,14.57
2023-03-22T01:11:07.879Z,14.02
2023-03-22T01:13:37.795Z,13.63
2023-03-22T01:16:06.787Z,11.88
2023-03-22T01:18:34.285Z,15.30
2023-03-22T01:21:01.980Z,13.13
2023-03-22T01:23:29.562Z,16.75
2023-03-22T01:25:56.951Z,16.80
2023-03-22T01:28:26.985Z,14.55
2023-03-22T01:30:55.348Z,17.10
2023-03-22T01:33:22.968Z,15.35
2023-03-22T01:35:50.586Z,17.08
2023-03-22T01:38:18.050Z,13.52
2023-03-22T01:40:45.396Z,12.77
2023-03-22T01:43:17.195Z,12.95
2023-03-22T01:45:52.969Z,19.45
2023-03-22T01:48:29.342Z,17.90
2023-03-22T01:51:11.585Z,17.17
2023-03-22T01:53:50.860Z,15.20
2023-03-22T01:56:21.510Z,13.05
2023-03-22T01:58:49.414Z,14.75
2023-03-22T02:01:17.182Z,16.42
2023-03-22T02:04:07.157Z,17.70
2023-03-22T02:06:38.171Z,20.13
2023-03-22T02:09:08.305Z,18.75
2023-03-22T02:11:44.058Z,20.30
2023-03-22T02:14:39.814Z,21.30
2023-03-22T02:17:36.913Z,20.23
2023-03-22T02:20:42.526Z,20.15
2023-03-22T02:23:15.942Z,22.98
2023-03-22T02:26:01.426Z,20.00
2023-03-22T02:28:52.745Z,20.98
2023-03-22T02:31:49.091Z,21.77
2023-03-22T02:34:28.694Z,21.60
2023-03-22T02:37:23.752Z,22.90
2023-03-22T02:39:53.904Z,24.92
2023-03-22T02:42:33.088Z,23.08
2023-03-22T02:45:30.590Z,24.48
2023-03-22T02:48:28.558Z,22.77
2023-03-22T02:51:00.729Z,29.35
2023-03-22T02:53:40.827Z,23.60
2023-03-22T02:56:29.033Z,22.38
2023-03-22T02:58:59.548Z,22.90
2023-03-22T03:01:30.534Z,27.25
2023-03-22T03:04:01.663Z,26.83
2023-03-22T03:06:32.618Z,28.20
2023-03-22T03:09:05.144Z,25.92
2023-03-22T03:11:32.779Z,23.10
2023-03-22T03:14:00.266Z,25.00
2023-03-22T03:16:30.966Z,27.88
2023-03-22T03:19:04.055Z,21.20
2023-03-22T03:21:32.694Z,25.70
2023-03-22T03:24:21.310Z,25.95
2023-03-22T03:26:57.811Z,25.13
2023-03-22T03:29:49.527Z,22.95
2023-03-22T03:32:38.401Z,23.30
2023-03-22T03:35:22.458Z,26.45
2023-03-22T03:38:12.442Z,24.48
2023-03-22T03:40:43.917Z,23.33
2023-03-22T03:43:11.808Z,25.60
2023-03-22T03:45:39.532Z,22.77
2023-03-22T03:48:16.607Z,25.15
2023-03-22T03:50:46.475Z,25.90
2023-03-22T03:53:13.866Z,22.55
2023-03-22T03:55:41.184Z,18.13
2023-03-22T03:58:11.622Z,22.17
2023-03-22T04:00:39.699Z,24.80
2023-03-22T04:03:07.800Z,22.02
2023-03-22T04:05:35.196Z,23.67
2023-03-22T04:08:02.763Z,26.48
2023-03-22T04:10:30.683Z,21.00
2023-03-22T04:12:58.121Z,27.08
2023-03-22T04:15:25.597Z,22.08
2023-03-22T04:17:53.897Z,25.02
2023-03-22T04:20:21.755Z,21.63
2023-03-22T04:22:49.169Z,25.13
2023-03-22T04:25:18.738Z,21.17
2023-03-22T04:27:51.108Z,17.55
2023-03-22T04:30:20.286Z,20.80
2023-03-22T04:32:48.702Z,28.23
2023-03-22T04:35:16.832Z,21.35
2023-03-22T04:37:45.659Z,20.92
2023-03-22T04:40:17.258Z,23.40
2023-03-22T04:42:45.610Z,26.33
2023-03-22T04:45:13.641Z,24.08
2023-03-22T04:47:41.235Z,21.58
2023-03-22T04:50:09.396Z,21.45
2023-03-22T04:52:36.724Z,23.25
2023-03-22T04:55:04.239Z,23.60
2023-03-22T04:57:31.805Z,22.52
2023-03-22T04:59:59.193Z,26.80
2023-03-22T05:02:26.613Z,23.42
2023-03-22T05:04:54.024Z,24.67
2023-03-22T05:07:21.667Z,24.58
2023-03-22T05:09:49.213Z,17.58
2023-03-22T05:12:16.589Z,23.13
2023-03-22T05:14:44.098Z,23.38
2023-03-22T05:17:11.496Z,18.67
2023-03-22T05:19:38.933Z,17.75
2023-03-22T05:22:06.201Z,18.40
2023-03-22T05:24:33.468Z,18.77
2023-03-22T05:27:06.622Z,22.63
2023-03-22T05:29:36.942Z,16.13
2023-03-22T05:32:05.639Z,22.27
2023-03-22T05:34:35.834Z,17.45
2023-03-22T05:37:03.635Z,17.00
2023-03-22T05:39:31.442Z,16.10
2023-03-22T05:41:58.801Z,17.80
2023-03-22T05:44:26.204Z,18.10
2023-03-22T05:46:53.612Z,15.70
2023-03-22T05:49:21.145Z,14.82
2023-03-22T05:51:48.821Z,18.02
2023-03-22T05:54:16.349Z,18.33
2023-03-22T05:56:44.256Z,16.70
2023-03-22T05:59:11.723Z,22.77
2023-03-22T06:01:44.734Z,17.95
2023-03-22T06:04:12.162Z,17.52
2023-03-22T06:06:39.490Z,21.38
2023-03-22T06:09:16.387Z,19.67
2023-03-22T06:11:44.514Z,17.98
2023-03-22T06:14:12.015Z,17.38
2023-03-22T06:16:39.330Z,19.33
2023-03-22T06:19:06.966Z,17.15
2023-03-22T06:21:34.329Z,19.92
2023-03-22T06:24:06.433Z,15.27
2023-03-22T06:26:33.803Z,16.08
2023-03-22T06:29:03.533Z,20.55
2023-03-22T06:31:41.247Z,21.33
2023-03-22T06:34:11.266Z,22.45
2023-03-22T06:36:38.621Z,13.88
2023-03-22T06:39:05.966Z,14.82
2023-03-22T06:41:33.783Z,20.17
2023-03-22T06:44:02.633Z,23.88
2023-03-22T06:46:30.225Z,13.00
2023-03-22T06:48:57.787Z,14.63
2023-03-22T06:51:31.247Z,16.67
2023-03-22T06:53:58.950Z,19.55
2023-03-22T06:56:26.995Z,17.15
2023-03-22T06:58:58.455Z,16.33
2023-03-22T07:01:26.546Z,16.95
2023-03-22T07:03:57.119Z,16.23
2023-03-22T07:06:32.352Z,17.90
2023-03-22T07:09:00.431Z,17.50
2023-03-22T07:11:29.362Z,19.45
2023-03-22T07:13:58.951Z,22.50
2023-03-22T07:16:30.165Z,16.58
2023-03-22T07:18:57.700Z,17.75
2023-03-22T07:21:27.981Z,16.75
2023-03-22T07:23:55.593Z,16.90
2023-03-22T07:26:26.210Z,19.15
2023-03-22T07:28:54.006Z,18.05
2023-03-22T07:31:21.426Z,15.27
2023-03-22T07:33:48.743Z,16.13
2023-03-22T07:36:18.753Z,18.05
2023-03-22T07:38:46.366Z,22.08
2023-03-22T07:41:13.775Z,17.92
2023-03-22T07:43:53.147Z,16.83
2023-03-22T07:46:22.813Z,17.13
2023-03-22T07:48:50.605Z,16.10
2023-03-22T07:51:19.194Z,14.68
2023-03-22T07:53:46.714Z,19.77
2023-03-22T07:56:14.029Z,20.23
2023-03-22T07:58:41.372Z,15.95
2023-03-22T08:01:10.010Z,14.52
2023-03-22T08:03:37.842Z,20.90
2023-03-22T08:06:07.815Z,17.02
2023-03-22T08:08:38.559Z,15.70
2023-03-22T08:11:06.889Z,15.48
2023-03-22T08:13:34.372Z,13.75
2023-03-22T08:16:01.787Z,13.90
2023-03-22T08:18:29.119Z,17.00
2023-03-22T08:20:58.917Z,17.73
2023-03-22T08:23:40.586Z,13.82
2023-03-22T08:26:11.691Z,17.70
2023-03-22T08:28:39.077Z,19.05
2023-03-22T08:31:15.256Z,15.63
2023-03-22T08:33:43.428Z,16.58
2023-03-22T08:36:13.536Z,17.50
2023-03-22T08:38:42.966Z,16.35
2023-03-22T08:41:10.868Z,22.13
2023-03-22T08:43:38.327Z,16.35
2023-03-22T08:46:05.970Z,19.70
2023-03-22T08:48:35.501Z,21.90
2023-03-22T08:51:08.342Z,13.93
2023-03-22T08:56:03.778Z,17.73
2023-03-22T08:58:31.108Z,20.33
2023-03-22T09:00:58.755Z,17.02
2023-03-22T09:03:26.235Z,14.40
2023-03-22T09:05:54.388Z,20.75
2023-03-22T09:08:21.748Z,16.30
2023-03-22T09:10:52.554Z,14.43
2023-03-22T09:13:21.560Z,18.15
2023-03-22T09:15:49.101Z,15.77
2023-03-22T09:18:16.764Z,18.75
2023-03-22T09:20:45.936Z,15.27
2023-03-22T09:23:18.088Z,14.20
2023-03-22T09:25:48.938Z,21.73
2023-03-22T09:31:12.268Z,19.67
2023-03-22T09:36:25.633Z,18.55
2023-03-22T09:38:53.101Z,16.38
2023-03-22T09:41:32.412Z,15.25
2023-03-22T09:44:03.871Z,14.48
2023-03-22T09:46:36.947Z,13.82
2023-03-22T09:49:11.220Z,14.73
2023-03-22T09:51:50.029Z,17.88
2023-03-22T09:54:54.130Z,18.92
2023-03-22T09:57:37.295Z,15.82
2023-03-22T10:00:14.869Z,16.02
2023-03-22T10:03:16.779Z,17.13
2023-03-22T10:05:50.018Z,20.67
2023-03-22T10:08:59.050Z,18.23
2023-03-22T10:11:47.525Z,19.65
2023-03-22T10:14:32.435Z,20.08
2023-03-22T10:17:05.579Z,22.52
2023-03-22T10:19:52.874Z,19.30
2023-03-22T10:22:30.229Z,16.58
2023-03-22T10:24:58.417Z,17.05
2023-03-22T10:27:28.733Z,18.52
2023-03-22T10:30:20.800Z,16.77
2023-03-22T10:33:05.217Z,14.60
2023-03-22T10:35:32.820Z,17.55
2023-03-22T10:38:02.855Z,13.75
2023-03-22T10:40:34.488Z,17.75
2023-03-22T10:43:34.033Z,15.05
2023-03-22T10:46:04.850Z,16.80
2023-03-22T10:48:38.644Z,12.10
2023-03-22T10:51:07.153Z,11.18
2023-03-22T10:53:48.537Z,11.18
2023-03-22T10:56:18.842Z,13.07
2023-03-22T10:58:46.992Z,13.95
2023-03-22T11:01:17.257Z,11.95
2023-03-22T11:03:52.290Z,15.40
2023-03-22T11:06:29.999Z,15.77
2023-03-22T11:09:21.793Z,10.15
2023-03-22T11:11:56.168Z,13.77
2023-03-22T11:14:37.686Z,16.25
2023-03-22T11:17:14.144Z,14.93
2023-03-22T11:19:51.523Z,13.25
2023-03-22T11:22:25.017Z,9.63
2023-03-22T11:24:52.616Z,12.07
2023-03-22T11:27:24.332Z,12.55
2023-03-22T11:29:59.204Z,9.25
2023-03-22T11:32:39.380Z,12.95
2023-03-22T11:35:16.172Z,13.85
2023-03-22T11:37:49.019Z,12.05
2023-03-22T11:42:46.026Z,12.77
2023-03-22T11:45:27.664Z,9.52
2023-03-22T11:47:56.240Z,11.50
2023-03-22T11:50:30.192Z,12.27
2023-03-22T11:52:58.110Z,10.35
2023-03-22T11:55:26.408Z,10.05
2023-03-22T11:57:56.930Z,12.70
2023-03-22T12:00:29.861Z,10.10
2023-03-22T12:05:36.453Z,16.95
2023-03-22T12:08:29.542Z,14.55
2023-03-22T12:11:06.998Z,10.18
2023-03-22T12:13:45.910Z,10.60
2023-03-22T12:16:15.812Z,11.63
2023-03-22T12:19:05.364Z,7.75
2023-03-22T12:21:33.798Z,9.82
2023-03-22T12:24:03.907Z,10.82
2023-03-22T12:26:32.916Z,9.90
2023-03-22T12:29:15.109Z,10.88
2023-03-22T12:31:59.653Z,8.60
2023-03-22T12:34:39.236Z,9.15
2023-03-22T12:37:09.237Z,9.18
2023-03-22T12:39:41.236Z,13.73
2023-03-22T12:42:21.944Z,10.50
2023-03-22T12:45:04.123Z,11.13
2023-03-22T12:47:42.434Z,10.27
2023-03-22T12:50:22.281Z,7.28
2023-03-22T12:52:54.807Z,9.10
2023-03-22T12:55:34.988Z,12.40
2023-03-22T12:58:02.700Z,6.75
2023-03-22T13:00:35.341Z,8.77
2023-03-22T13:03:10.397Z,8.45
2023-03-22T13:05:38.294Z,9.80
2023-03-22T13:08:05.852Z,10.98
2023-03-22T13:10:34.426Z,10.65
2023-03-22T13:13:24.261Z,10.77
2023-03-22T13:16:09.821Z,8.23
2023-03-22T13:18:38.811Z,7.15
2023-03-22T13:21:21.297Z,10.88
2023-03-22T13:24:01.380Z,9.63
2023-03-22T13:26:35.772Z,9.60
2023-03-22T13:29:24.406Z,10.43
2023-03-22T13:31:51.830Z,8.50
2023-03-22T13:34:38.272Z,9.15
2023-03-22T13:37:35.751Z,8.52
2023-03-22T13:40:22.123Z,11.52
2023-03-22T13:42:49.972Z,12.60
2023-03-22T13:46:01.730Z,12.38
2023-03-22T13:48:52.285Z,14.23
2023-03-22T13:51:23.520Z,9.68
2023-03-22T13:54:24.023Z,12.77
2023-03-22T13:56:56.449Z,10.57
2023-03-22T13:59:37.743Z,9.02
2023-03-22T14:02:29.338Z,11.93
2023-03-22T14:05:23.564Z,10.00
2023-03-22T14:07:56.280Z,9.90
2023-03-22T14:10:46.716Z,17.13
2023-03-22T14:13:26.617Z,12.07
2023-03-22T14:16:05.889Z,12.52
2023-03-22T14:18:38.108Z,12.30
2023-03-22T14:21:25.958Z,11.07
